sensor_id;sensor_type;location;lat;lon;timestamp;temperature;humidity
55016;DHT22;40919;43.236;21.590;2022-08-19T00:00:04;589.60;2432.00
55016;DHT22;40919;43.236;21.590;2022-08-19T00:02:30;589.50;2432.00
55016;DHT22;40919;43.236;21.590;2022-08-19T00:04:56;589.50;2432.00
55016;DHT22;40919;43.236;21.590;2022-08-19T00:07:23;589.50;2432.00
55016;DHT22;40919;43.236;21.590;2022-08-19T00:09:49;589.60;2432.00
55016;DHT22;40919;43.236;21.590;2022-08-19T00:12:14;589.60;2432.00
55016;DHT22;40919;43.236;21.590;2022-08-19T00:14:41;589.60;2432.00
55016;DHT22;40919;43.236;21.590;2022-08-19T00:17:08;589.60;2432.00
55016;DHT22;40919;43.236;21.590;2022-08-19T00:19:34;589.40;2432.00
55016;DHT22;40919;43.236;21.590;2022-08-19T00:22:01;589.30;2432.00
55016;DHT22;40919;43.236;21.590;2022-08-19T00:24:28;589.40;2432.00
55016;DHT22;40919;43.236;21.590;2022-08-19T00:26:55;589.10;2432.00
55016;DHT22;40919;43.236;21.590;2022-08-19T00:29:23;589.20;2432.00
55016;DHT22;40919;43.236;21.590;2022-08-19T00:31:51;589.10;2432.00
55016;DHT22;40919;43.236;21.590;2022-08-19T00:34:19;588.90;2432.00
55016;DHT22;40919;43.236;21.590;2022-08-19T01:16:08;588.90;2432.00
55016;DHT22;40919;43.236;21.590;2022-08-19T01:18:40;563.90;2432.00
55016;DHT22;40919;43.236;21.590;2022-08-19T01:21:18;563.80;2432.00
55016;DHT22;40919;43.236;21.590;2022-08-19T01:23:45;563.70;2432.00
55016;DHT22;40919;43.236;21.590;2022-08-19T01:26:15;563.60;2432.00
55016;DHT22;40919;43.236;21.590;2022-08-19T01:28:42;563.90;2432.00
55016;DHT22;40919;43.236;21.590;2022-08-19T01:31:13;564.00;2432.00
55016;DHT22;40919;43.236;21.590;2022-08-19T01:33:39;563.60;2432.00
55016;DHT22;40919;43.236;21.590;2022-08-19T01:36:11;563.50;2432.00
55016;DHT22;40919;43.236;21.590;2022-08-19T01:38:41;563.60;2432.00
55016;DHT22;40919;43.236;21.590;2022-08-19T01:41:09;563.50;2432.00
55016;DHT22;40919;43.236;21.590;2022-08-19T01:43:36;563.60;2432.00
55016;DHT22;40919;43.236;21.590;2022-08-19T01:46:03;563.80;2432.00
55016;DHT22;40919;43.236;21.590;2022-08-19T01:48:35;563.70;2432.00
55016;DHT22;40919;43.236;21.590;2022-08-19T01:51:01;563.80;2432.00
55016;DHT22;40919;43.236;21.590;2022-08-19T01:53:27;563.60;2432.00
55016;DHT22;40919;43.236;21.590;2022-08-19T01:55:53;563.50;2432.00
55016;DHT22;40919;43.236;21.590;2022-08-19T01:58:22;563.40;2432.00
55016;DHT22;40919;43.236;21.590;2022-08-19T02:00:50;563.40;2432.00
55016;DHT22;40919;43.236;21.590;2022-08-19T02:03:16;563.20;2432.00
55016;DHT22;40919;43.236;21.590;2022-08-19T02:05:42;563.20;2432.00
55016;DHT22;40919;43.236;21.590;2022-08-19T02:08:09;563.40;2432.00
55016;DHT22;40919;43.236;21.590;2022-08-19T02:10:40;563.40;2432.00
55016;DHT22;40919;43.236;21.590;2022-08-19T02:13:06;538.50;2406.40
55016;DHT22;40919;43.236;21.590;2022-08-19T02:15:32;538.50;2406.40
55016;DHT22;40919;43.236;21.590;2022-08-19T02:17:58;538.50;2406.40
55016;DHT22;40919;43.236;21.590;2022-08-19T02:20:24;563.20;2432.00
55016;DHT22;40919;43.236;21.590;2022-08-19T02:22:50;563.50;2432.00
55016;DHT22;40919;43.236;21.590;2022-08-19T02:25:16;563.50;2432.00
55016;DHT22;40919;43.236;21.590;2022-08-19T02:27:43;563.40;2432.00
55016;DHT22;40919;43.236;21.590;2022-08-19T02:30:14;563.20;2432.00
55016;DHT22;40919;43.236;21.590;2022-08-19T02:32:41;563.40;2432.00
55016;DHT22;40919;43.236;21.590;2022-08-19T02:35:07;563.40;2432.00
55016;DHT22;40919;43.236;21.590;2022-08-19T02:37:34;563.40;2432.00
55016;DHT22;40919;43.236;21.590;2022-08-19T02:40:18;563.40;2432.00
55016;DHT22;40919;43.236;21.590;2022-08-19T02:42:44;563.50;2432.00
55016;DHT22;40919;43.236;21.590;2022-08-19T02:45:12;563.60;2432.00
55016;DHT22;40919;43.236;21.590;2022-08-19T02:47:38;563.70;2432.00
55016;DHT22;40919;43.236;21.590;2022-08-19T02:50:05;563.70;2432.00
55016;DHT22;40919;43.236;21.590;2022-08-19T02:52:33;563.70;2432.00
55016;DHT22;40919;43.236;21.590;2022-08-19T02:54:59;563.60;2432.00
55016;DHT22;40919;43.236;21.590;2022-08-19T02:57:25;563.50;2432.00
55016;DHT22;40919;43.236;21.590;2022-08-19T02:59:52;563.60;2432.00
55016;DHT22;40919;43.236;21.590;2022-08-19T03:02:18;563.20;2432.00
55016;DHT22;40919;43.236;21.590;2022-08-19T03:04:44;563.20;2432.00
55016;DHT22;40919;43.236;21.590;2022-08-19T03:07:14;538.50;2406.40
55016;DHT22;40919;43.236;21.590;2022-08-19T03:09:40;538.30;2406.40
55016;DHT22;40919;43.236;21.590;2022-08-19T03:17:03;538.10;2406.40
55016;DHT22;40919;43.236;21.590;2022-08-19T03:19:30;537.80;2406.40
55016;DHT22;40919;43.236;21.590;2022-08-19T03:21:57;537.90;2406.40
55016;DHT22;40919;43.236;21.590;2022-08-19T03:24:23;537.90;2406.40
55016;DHT22;40919;43.236;21.590;2022-08-19T03:26:52;538.00;2406.40
55016;DHT22;40919;43.236;21.590;2022-08-19T03:29:20;538.10;2406.40
55016;DHT22;40919;43.236;21.590;2022-08-19T03:44:03;563.20;2432.00
55016;DHT22;40919;43.236;21.590;2022-08-19T04:01:14;538.00;2406.40
55016;DHT22;40919;43.236;21.590;2022-08-19T04:03:40;537.90;2406.40
55016;DHT22;40919;43.236;21.590;2022-08-19T04:13:33;538.00;2406.40
55016;DHT22;40919;43.236;21.590;2022-08-19T04:20:55;538.00;2406.40
55016;DHT22;40919;43.236;21.590;2022-08-19T06:36:30;589.70;2432.00
55016;DHT22;40919;43.236;21.590;2022-08-19T06:39:04;589.50;2432.00
55016;DHT22;40919;43.236;21.590;2022-08-19T06:41:34;589.70;2432.00
55016;DHT22;40919;43.236;21.590;2022-08-19T06:44:00;589.70;2432.00
55016;DHT22;40919;43.236;21.590;2022-08-19T06:46:26;614.50;2432.00
55016;DHT22;40919;43.236;21.590;2022-08-19T06:48:53;614.60;2432.00
55016;DHT22;40919;43.236;21.590;2022-08-19T06:51:20;614.60;2432.00
55016;DHT22;40919;43.236;21.590;2022-08-19T06:53:47;614.70;2432.00
55016;DHT22;40919;43.236;21.590;2022-08-19T06:56:18;614.60;2432.00
55016;DHT22;40919;43.236;21.590;2022-08-19T06:58:45;614.70;2432.00
55016;DHT22;40919;43.236;21.590;2022-08-19T07:01:12;614.70;2432.00
55016;DHT22;40919;43.236;21.590;2022-08-19T07:03:38;614.90;2432.00
55016;DHT22;40919;43.236;21.590;2022-08-19T07:06:13;615.00;2432.00
55016;DHT22;40919;43.236;21.590;2022-08-19T07:08:41;615.20;2432.00
55016;DHT22;40919;43.236;21.590;2022-08-19T07:11:09;640.00;2432.00
55016;DHT22;40919;43.236;21.590;2022-08-19T07:18:34;640.80;2432.00
55016;DHT22;40919;43.236;21.590;2022-08-19T07:21:09;640.70;2432.00
55016;DHT22;40919;43.236;21.590;2022-08-19T07:35:58;666.10;2432.00
55016;DHT22;40919;43.236;21.590;2022-08-19T07:48:12;691.30;2432.00
55016;DHT22;40919;43.236;21.590;2022-08-19T07:50:39;691.20;2432.00
55016;DHT22;40919;43.236;21.590;2022-08-19T07:53:05;691.20;2432.00
55016;DHT22;40919;43.236;21.590;2022-08-19T07:55:31;691.40;2432.00
55016;DHT22;40919;43.236;21.590;2022-08-19T07:57:57;691.50;2432.00
55016;DHT22;40919;43.236;21.590;2022-08-19T08:00:23;691.60;2432.00
55016;DHT22;40919;43.236;21.590;2022-08-19T08:18:04;717.40;2432.00
55016;DHT22;40919;43.236;21.590;2022-08-19T08:20:30;717.20;2432.00
55016;DHT22;40919;43.236;21.590;2022-08-19T08:22:56;717.40;2432.00
55016;DHT22;40919;43.236;21.590;2022-08-19T08:25:40;717.40;2432.00
55016;DHT22;40919;43.236;21.590;2022-08-19T08:28:06;717.60;2432.00
55016;DHT22;40919;43.236;21.590;2022-08-19T08:30:34;717.70;2432.00
55016;DHT22;40919;43.236;21.590;2022-08-19T08:33:02;742.50;2432.00
55016;DHT22;40919;43.236;21.590;2022-08-19T08:35:28;742.50;2432.00
55016;DHT22;40919;43.236;21.590;2022-08-19T08:37:55;742.50;2432.00
55016;DHT22;40919;43.236;21.590;2022-08-19T08:40:23;742.60;2432.00
55016;DHT22;40919;43.236;21.590;2022-08-19T08:43:22;742.50;2432.00
55016;DHT22;40919;43.236;21.590;2022-08-19T08:45:56;742.60;2432.00
55016;DHT22;40919;43.236;21.590;2022-08-19T08:50:57;743.10;2432.00
55016;DHT22;40919;43.236;21.590;2022-08-19T08:53:25;743.20;2432.00
55016;DHT22;40919;43.236;21.590;2022-08-19T08:55:51;743.30;2432.00
55016;DHT22;40919;43.236;21.590;2022-08-19T08:58:31;768.00;2432.00
55016;DHT22;40919;43.236;21.590;2022-08-19T09:00:59;768.10;2432.00
55016;DHT22;40919;43.236;21.590;2022-08-19T09:03:27;768.20;2432.00
55016;DHT22;40919;43.236;21.590;2022-08-19T09:06:22;768.30;2432.00
55016;DHT22;40919;43.236;21.590;2022-08-19T09:11:54;768.20;2432.00
55016;DHT22;40919;43.236;21.590;2022-08-19T10:00:40;844.80;2227.20
55016;DHT22;40919;43.236;21.590;2022-08-19T10:03:06;844.80;2201.60
55016;DHT22;40919;43.236;21.590;2022-08-19T10:05:32;820.10;2176.00
55016;DHT22;40919;43.236;21.590;2022-08-19T10:08:24;844.90;2227.20
55016;DHT22;40919;43.236;21.590;2022-08-19T10:10:51;844.90;2176.00
55016;DHT22;40919;43.236;21.590;2022-08-19T10:13:49;845.30;2176.00
55016;DHT22;40919;43.236;21.590;2022-08-19T10:16:19;845.50;2150.40
55016;DHT22;40919;43.236;21.590;2022-08-19T10:18:46;845.70;2150.40
55016;DHT22;40919;43.236;21.590;2022-08-19T10:21:16;871.30;2099.20
55016;DHT22;40919;43.236;21.590;2022-08-19T10:23:45;870.60;2048.00
55016;DHT22;40919;43.236;21.590;2022-08-19T10:26:20;871.10;2022.40
55016;DHT22;40919;43.236;21.590;2022-08-19T10:28:49;871.20;1996.80
55016;DHT22;40919;43.236;21.590;2022-08-19T10:31:25;871.10;2022.40
55016;DHT22;40919;43.236;21.590;2022-08-19T10:33:51;896.00;1996.80
55016;DHT22;40919;43.236;21.590;2022-08-19T10:36:32;871.30;1945.60
55016;DHT22;40919;43.236;21.590;2022-08-19T10:39:06;896.20;1971.20
55016;DHT22;40919;43.236;21.590;2022-08-19T10:49:01;896.90;1868.80
55016;DHT22;40919;43.236;21.590;2022-08-19T10:51:28;896.80;1868.80
55016;DHT22;40919;43.236;21.590;2022-08-19T10:54:12;921.80;1868.80
55016;DHT22;40919;43.236;21.590;2022-08-19T10:56:38;922.20;1843.20
55016;DHT22;40919;43.236;21.590;2022-08-19T10:59:24;921.80;1817.60
55016;DHT22;40919;43.236;21.590;2022-08-19T11:01:53;921.80;1766.40
55016;DHT22;40919;43.236;21.590;2022-08-19T11:04:20;921.90;1740.80
55016;DHT22;40919;43.236;21.590;2022-08-19T11:06:51;922.00;1766.40
55016;DHT22;40919;43.236;21.590;2022-08-19T11:09:22;922.20;1792.00
55016;DHT22;40919;43.236;21.590;2022-08-19T11:11:56;922.50;1740.80
55016;DHT22;40919;43.236;21.590;2022-08-19T11:14:23;922.30;1689.60
55016;DHT22;40919;43.236;21.590;2022-08-19T11:16:52;922.40;1689.60
55016;DHT22;40919;43.236;21.590;2022-08-19T11:46:17;947.70;1536.00
55016;DHT22;40919;43.236;21.590;2022-08-19T13:22:17;998.80;1510.40
55016;DHT22;40919;43.236;21.590;2022-08-19T13:24:58;998.80;1561.60
55016;DHT22;40919;43.236;21.590;2022-08-19T13:59:15;999.00;1484.80
55016;DHT22;40919;43.236;21.590;2022-08-19T14:01:44;998.80;1484.80
55016;DHT22;40919;43.236;21.590;2022-08-19T14:04:13;1024.00;1510.40
55016;DHT22;40919;43.236;21.590;2022-08-19T14:06:39;998.80;1484.80
55016;DHT22;40919;43.236;21.590;2022-08-19T14:09:05;999.00;1561.60
55016;DHT22;40919;43.236;21.590;2022-08-19T14:11:37;973.20;1484.80
55016;DHT22;40919;43.236;21.590;2022-08-19T14:14:22;998.70;1484.80
55016;DHT22;40919;43.236;21.590;2022-08-19T14:16:54;999.00;1484.80
55016;DHT22;40919;43.236;21.590;2022-08-19T14:19:26;998.90;1484.80
55016;DHT22;40919;43.236;21.590;2022-08-19T16:05:39;922.20;1740.80
55016;DHT22;40919;43.236;21.590;2022-08-19T16:08:24;896.80;1817.60
55016;DHT22;40919;43.236;21.590;2022-08-19T16:10:49;896.40;1843.20
55016;DHT22;40919;43.236;21.590;2022-08-19T16:13:16;896.10;1843.20
55016;DHT22;40919;43.236;21.590;2022-08-19T16:15:42;871.20;1868.80
55016;DHT22;40919;43.236;21.590;2022-08-19T16:18:09;870.90;1868.80
55016;DHT22;40919;43.236;21.590;2022-08-19T16:20:35;870.90;1868.80
55016;DHT22;40919;43.236;21.590;2022-08-19T16:23:02;870.70;1868.80
55016;DHT22;40919;43.236;21.590;2022-08-19T16:25:29;870.70;1868.80
55016;DHT22;40919;43.236;21.590;2022-08-19T16:27:57;870.50;1868.80
55016;DHT22;40919;43.236;21.590;2022-08-19T16:30:23;845.70;1920.00
55016;DHT22;40919;43.236;21.590;2022-08-19T16:32:49;845.60;1920.00
55016;DHT22;40919;43.236;21.590;2022-08-19T16:35:16;845.50;1945.60
55016;DHT22;40919;43.236;21.590;2022-08-19T16:37:42;845.40;1971.20
55016;DHT22;40919;43.236;21.590;2022-08-19T16:40:08;845.20;1971.20
55016;DHT22;40919;43.236;21.590;2022-08-19T16:42:35;845.30;1996.80
55016;DHT22;40919;43.236;21.590;2022-08-19T16:45:02;845.10;2022.40
55016;DHT22;40919;43.236;21.590;2022-08-19T16:47:28;845.10;2022.40
55016;DHT22;40919;43.236;21.590;2022-08-19T16:49:54;844.90;2048.00
55016;DHT22;40919;43.236;21.590;2022-08-19T16:52:21;844.80;2099.20
55016;DHT22;40919;43.236;21.590;2022-08-19T16:54:51;820.10;2073.60
55016;DHT22;40919;43.236;21.590;2022-08-19T16:57:18;845.00;2124.80
55016;DHT22;40919;43.236;21.590;2022-08-19T16:59:44;820.00;2124.80
55016;DHT22;40919;43.236;21.590;2022-08-19T17:02:10;819.80;2124.80
55016;DHT22;40919;43.236;21.590;2022-08-19T17:04:37;819.80;2124.80
55016;DHT22;40919;43.236;21.590;2022-08-19T17:13:22;819.70;2176.00
55016;DHT22;40919;43.236;21.590;2022-08-19T17:15:51;819.50;2176.00
55016;DHT22;40919;43.236;21.590;2022-08-19T17:18:24;819.20;2176.00
55016;DHT22;40919;43.236;21.590;2022-08-19T17:20:50;794.50;2201.60
55016;DHT22;40919;43.236;21.590;2022-08-19T17:23:18;794.50;2201.60
55016;DHT22;40919;43.236;21.590;2022-08-19T17:25:47;794.20;2201.60
55016;DHT22;40919;43.236;21.590;2022-08-19T17:28:21;794.20;2150.40
55016;DHT22;40919;43.236;21.590;2022-08-19T17:30:48;794.30;2150.40
55016;DHT22;40919;43.236;21.590;2022-08-19T17:33:14;794.20;2176.00
55016;DHT22;40919;43.236;21.590;2022-08-19T17:35:40;794.00;2201.60
55016;DHT22;40919;43.236;21.590;2022-08-19T17:38:14;794.00;2201.60
55016;DHT22;40919;43.236;21.590;2022-08-19T17:40:44;794.00;2227.20
55016;DHT22;40919;43.236;21.590;2022-08-19T18:30:05;794.10;2048.00
55016;DHT22;40919;43.236;21.590;2022-08-19T18:35:02;793.70;2073.60
55016;DHT22;40919;43.236;21.590;2022-08-19T18:37:28;768.90;2073.60
55016;DHT22;40919;43.236;21.590;2022-08-19T18:39:55;768.70;2150.40
55016;DHT22;40919;43.236;21.590;2022-08-19T18:45:29;768.50;2176.00
55016;DHT22;40919;43.236;21.590;2022-08-19T18:48:14;768.40;2150.40
55016;DHT22;40919;43.236;21.590;2022-08-19T18:50:59;768.40;2124.80
55016;DHT22;40919;43.236;21.590;2022-08-19T18:53:32;768.50;2099.20
55016;DHT22;40919;43.236;21.590;2022-08-19T18:55:58;768.60;2099.20
55016;DHT22;40919;43.236;21.590;2022-08-19T18:58:26;768.60;2099.20
55016;DHT22;40919;43.236;21.590;2022-08-19T19:00:56;768.50;2099.20
55016;DHT22;40919;43.236;21.590;2022-08-19T19:03:24;768.50;2099.20
55016;DHT22;40919;43.236;21.590;2022-08-19T19:05:50;768.60;2099.20
55016;DHT22;40919;43.236;21.590;2022-08-19T19:08:17;768.70;2073.60
55016;DHT22;40919;43.236;21.590;2022-08-19T19:10:43;768.70;2073.60
55016;DHT22;40919;43.236;21.590;2022-08-19T19:13:08;768.70;2073.60
55016;DHT22;40919;43.236;21.590;2022-08-19T19:15:42;768.70;2073.60
55016;DHT22;40919;43.236;21.590;2022-08-19T19:18:09;768.70;2073.60
55016;DHT22;40919;43.236;21.590;2022-08-19T19:20:40;768.70;2073.60
55016;DHT22;40919;43.236;21.590;2022-08-19T19:23:06;768.70;2073.60
55016;DHT22;40919;43.236;21.590;2022-08-19T19:25:32;768.70;2073.60
55016;DHT22;40919;43.236;21.590;2022-08-19T19:27:59;768.60;2073.60
55016;DHT22;40919;43.236;21.590;2022-08-19T19:30:25;768.60;2073.60
55016;DHT22;40919;43.236;21.590;2022-08-19T19:32:55;768.60;2073.60
55016;DHT22;40919;43.236;21.590;2022-08-19T19:35:21;768.60;2073.60
55016;DHT22;40919;43.236;21.590;2022-08-19T19:37:47;768.70;2073.60
55016;DHT22;40919;43.236;21.590;2022-08-19T19:40:18;768.60;2073.60
55016;DHT22;40919;43.236;21.590;2022-08-19T19:42:44;768.60;2073.60
55016;DHT22;40919;43.236;21.590;2022-08-19T19:45:14;768.60;2073.60
55016;DHT22;40919;43.236;21.590;2022-08-19T19:47:40;768.60;2073.60
55016;DHT22;40919;43.236;21.590;2022-08-19T19:50:10;768.60;2073.60
55016;DHT22;40919;43.236;21.590;2022-08-19T19:52:36;768.60;2073.60
55016;DHT22;40919;43.236;21.590;2022-08-19T19:55:02;768.60;2073.60
55016;DHT22;40919;43.236;21.590;2022-08-19T19:57:28;768.60;2073.60
55016;DHT22;40919;43.236;21.590;2022-08-19T19:59:55;768.60;2124.80
55016;DHT22;40919;43.236;21.590;2022-08-19T20:02:21;768.50;2124.80
55016;DHT22;40919;43.236;21.590;2022-08-19T20:04:47;768.50;2124.80
55016;DHT22;40919;43.236;21.590;2022-08-19T20:07:16;768.40;2150.40
55016;DHT22;40919;43.236;21.590;2022-08-19T20:09:41;768.40;2150.40
55016;DHT22;40919;43.236;21.590;2022-08-19T20:12:07;768.30;2176.00
55016;DHT22;40919;43.236;21.590;2022-08-19T20:14:33;768.10;2201.60
55016;DHT22;40919;43.236;21.590;2022-08-19T20:17:03;768.00;2201.60
55016;DHT22;40919;43.236;21.590;2022-08-19T20:19:31;768.00;2176.00
55016;DHT22;40919;43.236;21.590;2022-08-19T20:22:05;743.30;2201.60
55016;DHT22;40919;43.236;21.590;2022-08-19T20:24:34;743.30;2201.60
55016;DHT22;40919;43.236;21.590;2022-08-19T20:27:01;743.10;2227.20
55016;DHT22;40919;43.236;21.590;2022-08-19T20:29:28;743.10;2252.80
55016;DHT22;40919;43.236;21.590;2022-08-19T20:31:54;743.10;2227.20
55016;DHT22;40919;43.236;21.590;2022-08-19T20:34:20;743.00;2227.20
55016;DHT22;40919;43.236;21.590;2022-08-19T20:36:46;742.90;2252.80
55016;DHT22;40919;43.236;21.590;2022-08-19T20:39:28;742.70;2252.80
55016;DHT22;40919;43.236;21.590;2022-08-19T20:41:53;742.80;2278.40
55016;DHT22;40919;43.236;21.590;2022-08-19T20:44:20;742.80;2304.00
55016;DHT22;40919;43.236;21.590;2022-08-19T21:35:41;717.30;2355.20
55016;DHT22;40919;43.236;21.590;2022-08-19T21:38:07;717.20;2355.20
55016;DHT22;40919;43.236;21.590;2022-08-19T21:40:33;717.20;2355.20
55016;DHT22;40919;43.236;21.590;2022-08-19T22:07:35;717.10;2329.60
55016;DHT22;40919;43.236;21.590;2022-08-19T22:22:28;691.90;2355.20
55016;DHT22;40919;43.236;21.590;2022-08-19T22:25:00;691.70;2355.20
55016;DHT22;40919;43.236;21.590;2022-08-19T22:27:27;691.60;2355.20
55016;DHT22;40919;43.236;21.590;2022-08-19T22:29:53;691.40;2406.40
55016;DHT22;40919;43.236;21.590;2022-08-19T22:32:20;691.40;2406.40
55016;DHT22;40919;43.236;21.590;2022-08-19T22:34:46;691.40;2432.00
55016;DHT22;40919;43.236;21.590;2022-08-19T22:37:22;691.40;2432.00
55016;DHT22;40919;43.236;21.590;2022-08-19T22:39:47;691.40;2432.00
55016;DHT22;40919;43.236;21.590;2022-08-19T22:42:20;691.50;2432.00
55016;DHT22;40919;43.236;21.590;2022-08-19T22:44:46;691.30;2432.00
55016;DHT22;40919;43.236;21.590;2022-08-19T22:47:13;666.50;2432.00
55016;DHT22;40919;43.236;21.590;2022-08-19T22:49:39;666.40;2432.00
55016;DHT22;40919;43.236;21.590;2022-08-19T22:52:06;666.50;2432.00
